WATT/KOE METAR and TAF weather

Enter ICAO airport designator
Station Type Date Time Source
WATT METAR 2022/01/18 00:30 UTC NOAA

WATT 180030Z 33002KT 9000 SCT017 28/28 Q1009 NOSIG


Station Type Date Time Source
WATT Decoded METAR 2022/01/18 00:30 UTC NOAA

Station name not available
Jan 17, 2022 - 07:30 PM EST / 2022.01.18 0030 UTC
Wind: from the NNW (330 degrees) at 2 MPH (2 KT):0
Visibility: 5 mile(s):0
Sky conditions: partly cloudy
Temperature: 82 F (28 C)
Dew Point: 82 F (28 C)
Relative Humidity: 100%
Pressure (altimeter): 29.80 in. Hg (1009 hPa)
ob: WATT 180030Z 33002KT 9000 SCT017 28/28 Q1009 NOSIG
cycle: 0

Station Type Date Time Source
WATT TAF 2022/01/18 06:00 UTC NOAA

TAF WATT 180500Z 1806/1906 27010KT 9999 SCT017 PROB40
TEMPO 1807/1810 5000 TSRA FEW015CB BKN015
TEMPO 1811/1815 3000 TSRA FEW013CB OVC014

Example: see airport list